Sebastian, Texas
Current Conditions -  °F | °C
As of 1:52 PM on Friday 24 Oct 2014 (Local Time) from KHRL Reporting Station
Few Clouds Few Clouds  
Wind Chill: 84°   Ceiling: Unl
Heat Index: 86°   Visibility: 10mi
Dew Point: 65°   Wind: 13mph
Humidity: 53%   Direction: 30°NNE
Pressure: 30.09"   Gusts: 18mph
Location:  26.34°N, 97.79°W
Report Text: KHRL 241852Z 03011G16KT 10SM FEW044 29/18 A3009 RMK AO2 SLP190 T02890183
Loading
Personal Weather Stations






























Interactive Weather Map
Tropical Storm Tracking
New forecast layout! Learn more

10-Day Weather Forecast

Advertisements
Track Severe Weather on mobile